^^
Station Historical Data
Daily Summary for March 31, 2017 Units:  English    Metric   Both
« Previous Day
Next Day »
Daily Weekly Monthly Yearly Custom
  High: Low: Average:
Temperature: 40.6 °F 36.8 °F 38.9 °F
Dew Point: 38.9 °F 34.8 °F 36.9 °F
Humidity: 94 % 88 % 93 %
Wind Speed: 9.7 mph 0.0 mph 3 mph
Wind Gust: 16.1 mph - -
Wind:- - ENE
Pressure: 30.12 in 29.69 in -
Precipitation: 1.63 in    
Historical Graphs
 
 
Tabular Data for March 31, 2017
Time Temperature Dew Point Pressure Wind Wind Speed Wind Gust Humidity Rainfall Rate (Hourly) solar Conditions
00:03 39.8 °F 36.5 °F 30.10 in Calm     88 % 0.06 in 0.0 W/m2 RA
00:08 39.9 °F 36.6 °F 30.09 in ESE 1.3 mph 3.5 mph 88 % 0.06 in 0.0 W/m2 RA
00:13 39.8 °F 36.8 °F 30.09 in ESE 3.1 mph 6.9 mph 89 % 0.08 in 0.0 W/m2 RA
00:18 39.7 °F 36.7 °F 30.09 in SE 0.5 mph 3.5 mph 89 % 0.08 in 0.0 W/m2 RA
00:23 39.7 °F 36.7 °F 30.09 in South 0.1 mph 3.5 mph 89 % 0.08 in 0.0 W/m2 RA
00:28 39.7 °F 36.7 °F 30.10 in SE 1.5 mph 4.6 mph 89 % 0.07 in 0.0 W/m2 RA
00:33 39.6 °F 36.6 °F 30.10 in ESE 0.4 mph 3.0 mph 89 % 0.07 in 0.0 W/m2
00:34 39.5 °F 36.5 °F 30.09 in Calm   3.5 mph 89 % 0.07 in 0.0 W/m2
00:39 39.4 °F 36.4 °F 30.09 in Calm   1.2 mph 89 % 0.10 in 0.0 W/m2 RA
00:44 39.4 °F 36.4 °F 30.09 in Calm     89 % 0.10 in 0.0 W/m2 RA
00:49 39.3 °F 36.3 °F 30.10 in SE 0.1 mph 2.3 mph 89 % 0.12 in 0.0 W/m2 RA
00:54 39.3 °F 36.6 °F 30.10 in Calm     90 % 0.13 in 0.0 W/m2 RA
00:59 39.3 °F 36.6 °F 30.11 in Calm     90 % 0.13 in 0.0 W/m2 RA
01:04 39.2 °F 36.2 °F 30.11 in ESE 0.2 mph 2.0 mph 89 % 0.14 in 0.0 W/m2 RA
01:09 39.3 °F 36.6 °F 30.11 in Calm   3.5 mph 90 % 0.13 in 0.0 W/m2 RA
01:14 39.3 °F 36.6 °F 30.12 in Calm     90 % 0.12 in 0.0 W/m2 RA
01:19 39.3 °F 36.6 °F 30.11 in Calm     90 % 0.09 in 0.0 W/m2 RA
01:24 39.1 °F 36.4 °F 30.11 in ESE 0.9 mph 3.5 mph 90 % 0.08 in 0.0 W/m2
01:29 38.9 °F 35.9 °F 30.12 in Calm     89 % 0.09 in 0.0 W/m2 RA
01:34 39.0 °F 36.0 °F 30.12 in Calm     89 % 0.09 in 0.0 W/m2 RA
01:39 38.9 °F 35.9 °F 30.11 in Calm     89 % 0.06 in 0.0 W/m2
01:44 38.9 °F 35.9 °F 30.11 in Calm   2.3 mph 89 % 0.06 in 0.0 W/m2 CLR
01:49 38.9 °F 35.9 °F 30.11 in Calm     89 % 0.05 in 0.0 W/m2 CLR
01:54 38.8 °F 35.8 °F 30.11 in SE 1.5 mph 3.5 mph 89 % 0.04 in 0.0 W/m2 CLR
01:59 38.8 °F 35.8 °F 30.11 in ESE 0.5 mph 3.5 mph 89 % 0.04 in 0.0 W/m2 CLR
02:04 38.6 °F 35.6 °F 30.11 in ESE 1.7 mph 4.0 mph 89 % 0.03 in 0.0 W/m2 CLR
02:09 38.6 °F 35.6 °F 30.11 in East 0.8 mph 3.5 mph 89 % 0.02 in 0.0 W/m2 CLR
02:14 38.6 °F 35.6 °F 30.11 in Calm     89 % 0.01 in 0.0 W/m2 CLR
02:19 38.7 °F 35.7 °F 30.10 in Calm     89 % 0.01 in 0.0 W/m2 CLR
02:24 38.6 °F 35.6 °F 30.10 in Calm   1.0 mph 89 % 0.01 in 0.0 W/m2 CLR
02:29 38.6 °F 35.6 °F 30.11 in Calm     89 % 0.00 in 0.0 W/m2 CLR
02:34 38.6 °F 35.6 °F 30.11 in ESE 0.5 mph 3.5 mph 89 % 0.00 in 0.0 W/m2 CLR
02:39 38.5 °F 35.5 °F 30.11 in ESE 0.8 mph 3.5 mph 89 % 0.00 in 0.0 W/m2 CLR
02:44 38.5 °F 35.5 °F 30.11 in East 0.1 mph 3.5 mph 89 % 0.00 in 0.0 W/m2 CLR
02:49 38.4 °F 35.4 °F 30.10 in SE 1.6 mph 3.5 mph 89 % 0.00 in 0.0 W/m2 CLR
02:54 38.4 °F 35.4 °F 30.10 in ESE 0.2 mph 3.5 mph 89 % 0.00 in 0.0 W/m2 CLR
02:59 38.5 °F 35.5 °F 30.11 in ESE 1.0 mph 3.5 mph 89 % 0.00 in 0.0 W/m2 CLR
03:04 38.5 °F 35.5 °F 30.10 in Calm   2.3 mph 89 % 0.00 in 0.0 W/m2 CLR
03:09 38.4 °F 35.4 °F 30.10 in East 0.5 mph 1.2 mph 89 % 0.00 in 0.0 W/m2 CLR
03:14 38.4 °F 35.4 °F 30.11 in Calm     89 % 0.00 in 0.0 W/m2 CLR
03:19 38.4 °F 35.4 °F 30.10 in Calm     89 % 0.00 in 0.0 W/m2 CLR
03:24 38.4 °F 35.4 °F 30.10 in East 0.2 mph 2.3 mph 89 % 0.00 in 0.0 W/m2 CLR
03:29 38.4 °F 35.7 °F 30.10 in SE 0.7 mph 5.0 mph 90 % 0.00 in 0.0 W/m2 CLR
03:35 38.3 °F 35.3 °F 30.10 in East 0.6 mph 2.3 mph 89 % 0.00 in 0.0 W/m2 CLR
03:40 38.3 °F 35.6 °F 30.10 in Calm     90 % 0.00 in 0.0 W/m2 CLR
03:45 38.3 °F 35.6 °F 30.09 in Calm   1.2 mph 90 % 0.00 in 0.0 W/m2 CLR
03:50 38.3 °F 35.6 °F 30.09 in ENE 1.7 mph 3.5 mph 90 % 0.00 in 0.0 W/m2 CLR
03:55 38.2 °F 35.5 °F 30.09 in Calm     90 % 0.00 in 0.0 W/m2 CLR
04:00 38.2 °F 35.5 °F 30.09 in Calm     90 % 0.00 in 0.0 W/m2 CLR
04:05 38.1 °F 35.4 °F 30.09 in East 1.0 mph 6.0 mph 90 % 0.00 in 0.0 W/m2 CLR
04:10 38.1 °F 35.4 °F 30.09 in East 1.0 mph 4.0 mph 90 % 0.00 in 0.0 W/m2 CLR
04:15 38.0 °F 35.3 °F 30.08 in ESE 1.4 mph 2.3 mph 90 % 0.00 in 0.0 W/m2 CLR
04:20 38.0 °F 35.3 °F 30.08 in SE 0.3 mph 2.3 mph 90 % 0.00 in 0.0 W/m2 CLR
04:25 37.9 °F 35.2 °F 30.08 in ESE 5.1 mph 9.2 mph 90 % 0.00 in 0.0 W/m2 CLR
04:30 37.8 °F 35.4 °F 30.08 in ESE 2.2 mph 5.8 mph 91 % 0.00 in 0.0 W/m2 CLR
04:35 37.9 °F 35.5 °F 30.08 in SSE 0.2 mph 2.3 mph 91 % 0.00 in 0.0 W/m2 CLR
04:40 37.8 °F 35.4 °F 30.08 in Calm     91 % 0.00 in 0.0 W/m2 CLR
04:45 37.7 °F 35.3 °F 30.08 in Calm     91 % 0.01 in 0.0 W/m2 RA
04:50 37.6 °F 35.2 °F 30.08 in SE 3.3 mph 5.8 mph 91 % 0.01 in 0.0 W/m2 RA
04:55 37.5 °F 35.1 °F 30.08 in ESE 0.1 mph 3.0 mph 91 % 0.01 in 0.0 W/m2
05:00 37.4 °F 35.0 °F 30.07 in ESE 3.3 mph 4.0 mph 91 % 0.01 in 0.0 W/m2 CLR
05:05 37.3 °F 34.9 °F 30.07 in East 0.7 mph 3.5 mph 91 % 0.01 in 0.0 W/m2 CLR
05:10 37.3 °F 34.9 °F 30.07 in ESE 3.8 mph 10.4 mph 91 % 0.02 in 0.0 W/m2 RA
05:15 37.2 °F 34.8 °F 30.07 in ESE 1.5 mph 3.5 mph 91 % 0.02 in 0.0 W/m2 RA
05:20 37.2 °F 34.8 °F 30.07 in ESE 0.2 mph 1.2 mph 91 % 0.02 in 0.0 W/m2
05:25 37.2 °F 34.8 °F 30.07 in Calm     91 % 0.02 in 0.0 W/m2
05:30 37.2 °F 34.8 °F 30.06 in ESE 2.3 mph 3.5 mph 91 % 0.02 in 0.0 W/m2 CLR
05:34 37.2 °F 34.8 °F 30.06 in SE 1.1 mph 7.0 mph 91 % 0.02 in 0.0 W/m2 CLR
05:39 37.2 °F 34.8 °F 30.06 in ESE 0.5 mph 3.5 mph 91 % 0.02 in 0.0 W/m2 CLR
05:44 37.2 °F 34.8 °F 30.06 in ESE 2.1 mph 4.6 mph 91 % 0.02 in 0.0 W/m2 RA
05:49 37.2 °F 34.8 °F 30.05 in ESE 2.8 mph 4.0 mph 91 % 0.02 in 0.0 W/m2 RA
05:54 37.2 °F 35.1 °F 30.06 in ENE 0.2 mph 2.3 mph 92 % 0.02 in 0.0 W/m2
05:59 37.3 °F 35.2 °F 30.06 in Calm     92 % 0.03 in 0.0 W/m2 RA
06:04 37.3 °F 35.2 °F 30.06 in ESE 1.8 mph 3.5 mph 92 % 0.03 in 0.0 W/m2 RA
06:09 37.3 °F 35.2 °F 30.05 in ESE 0.2 mph 2.3 mph 92 % 0.03 in 0.0 W/m2
06:14 37.3 °F 35.2 °F 30.05 in East 0.3 mph 2.3 mph 92 % 0.02 in 0.0 W/m2
06:19 37.3 °F 35.2 °F 30.05 in Calm     92 % 0.02 in 0.0 W/m2 CLR
06:24 37.3 °F 35.2 °F 30.05 in SE 0.4 mph 2.3 mph 92 % 0.02 in 0.0 W/m2 CLR
06:29 37.3 °F 35.2 °F 30.04 in SE 1.4 mph 4.0 mph 92 % 0.02 in 0.0 W/m2
06:34 37.3 °F 35.2 °F 30.05 in Calm   1.2 mph 92 % 0.02 in 0.0 W/m2
06:39 37.3 °F 35.2 °F 30.04 in ESE 0.9 mph 3.5 mph 92 % 0.02 in 0.0 W/m2
06:40 37.3 °F 35.2 °F 30.04 in Calm   3.5 mph 92 % 0.02 in 0.0 W/m2
06:45 37.2 °F 35.1 °F 30.04 in ESE 3.5 mph 3.5 mph 92 % 0.01 in 0.0 W/m2
06:50 37.2 °F 35.1 °F 30.04 in Calm   2.3 mph 92 % 0.01 in 0.0 W/m2
06:55 37.1 °F 35.0 °F 30.04 in SE 0.5 mph 1.2 mph 92 % 0.01 in 0.0 W/m2
07:00 37.1 °F 35.0 °F 30.04 in ESE 2.5 mph 3.5 mph 92 % 0.00 in 0.0 W/m2
07:05 37.1 °F 35.0 °F 30.04 in Calm     92 % 0.00 in 0.0 W/m2 CLR
07:10 37.1 °F 35.0 °F 30.05 in Calm     92 % 0.00 in 0.0 W/m2 CLR
07:15 37.2 °F 35.1 °F 30.04 in Calm     92 % 0.00 in 0.0 W/m2 CLR
07:20 37.2 °F 35.1 °F 30.04 in NNE 1.3 mph 4.6 mph 92 % 0.01 in 0.0 W/m2 RA
07:25 37.2 °F 35.4 °F 30.04 in East 2.2 mph 3.5 mph 93 % 0.01 in 0.0 W/m2 RA
07:30 37.2 °F 35.1 °F 30.04 in Calm     92 % 0.01 in 0.0 W/m2
07:35 37.3 °F 35.5 °F 30.04 in Calm   1.2 mph 93 % 0.01 in 5.0 W/m2
07:40 37.2 °F 35.4 °F 30.04 in Calm     93 % 0.02 in 7.0 W/m2 RA
07:45 37.2 °F 35.4 °F 30.04 in ESE 0.5 mph 2.3 mph 93 % 0.02 in 9.0 W/m2 RA
07:50 37.1 °F 35.3 °F 30.04 in East 0.3 mph 2.3 mph 93 % 0.03 in 9.0 W/m2 RA
07:55 37.1 °F 35.3 °F 30.04 in East 0.9 mph 3.5 mph 93 % 0.03 in 11.0 W/m2 RA
08:00 36.9 °F 35.1 °F 30.03 in ENE 1.4 mph 3.5 mph 93 % 0.03 in 12.0 W/m2 OVC
08:05 37.0 °F 35.2 °F 30.03 in Calm   1.2 mph 93 % 0.03 in 19.0 W/m2 OVC
08:10 37.0 °F 35.2 °F 30.03 in East 1.2 mph 3.5 mph 93 % 0.03 in 21.0 W/m2 OVC
08:15 36.9 °F 35.1 °F 30.03 in East 1.7 mph 3.5 mph 93 % 0.03 in 25.0 W/m2 OVC
08:20 36.8 °F 35.0 °F 30.03 in Calm     93 % 0.02 in 21.0 W/m2 OVC
08:25 36.9 °F 35.1 °F 30.03 in Calm   1.2 mph 93 % 0.02 in 18.0 W/m2 OVC
08:30 36.9 °F 35.1 °F 30.02 in ENE 0.2 mph 2.0 mph 93 % 0.02 in 18.0 W/m2 OVC
08:35 36.9 °F 35.1 °F 30.02 in East 0.2 mph 1.2 mph 93 % 0.02 in 23.0 W/m2 OVC
08:40 36.8 °F 35.0 °F 30.02 in East 0.6 mph 3.5 mph 93 % 0.02 in 23.0 W/m2 RA
08:45 36.9 °F 35.1 °F 30.01 in NE 0.8 mph 3.5 mph 93 % 0.02 in 28.0 W/m2 RA
08:50 37.0 °F 35.2 °F 30.01 in NE 0.7 mph 2.3 mph 93 % 0.01 in 49.0 W/m2 OVC
08:55 37.1 °F 35.3 °F 30.01 in East 1.3 mph 3.5 mph 93 % 0.01 in 42.0 W/m2 OVC
09:00 37.1 °F 35.3 °F 30.00 in ENE 1.5 mph 3.5 mph 93 % 0.01 in 30.0 W/m2 OVC
09:05 37.0 °F 35.2 °F 30.00 in ENE 1.7 mph 6.9 mph 93 % 0.03 in 23.0 W/m2 RA
09:10 37.1 °F 35.3 °F 30.00 in NE 0.7 mph 2.3 mph 93 % 0.04 in 26.0 W/m2 RA
09:16 37.1 °F 35.3 °F 30.00 in NNE 3.5 mph 5.0 mph 93 % 0.05 in 30.0 W/m2 RA
09:21 37.2 °F 35.4 °F 29.99 in NE 3.0 mph 3.5 mph 93 % 0.05 in 26.0 W/m2 RA
09:26 37.3 °F 35.5 °F 29.99 in ENE 0.9 mph 3.5 mph 93 % 0.05 in 30.0 W/m2 OVC
09:31 37.2 °F 35.4 °F 29.98 in ENE 2.2 mph 5.8 mph 93 % 0.05 in 25.0 W/m2 OVC
09:36 37.3 °F 35.7 °F 29.98 in NE 2.9 mph 4.6 mph 94 % 0.06 in 21.0 W/m2 RA
09:41 37.4 °F 35.8 °F 29.98 in Calm     94 % 0.05 in 23.0 W/m2 RA
09:46 37.5 °F 35.9 °F 29.98 in NE 1.4 mph 4.6 mph 94 % 0.05 in 26.0 W/m2 OVC
09:51 37.6 °F 36.0 °F 29.97 in East 1.3 mph 4.0 mph 94 % 0.05 in 30.0 W/m2 OVC
09:56 37.6 °F 36.0 °F 29.97 in NE 1.9 mph 3.5 mph 94 % 0.06 in 32.0 W/m2 RA
10:01 37.7 °F 36.1 °F 29.97 in ENE 1.3 mph 3.5 mph 94 % 0.06 in 28.0 W/m2 RA
10:06 37.7 °F 36.1 °F 29.96 in East 2.5 mph 3.5 mph 94 % 0.04 in 30.0 W/m2 OVC
10:11 37.7 °F 35.9 °F 29.97 in NE 2.6 mph 5.8 mph 93 % 0.03 in 32.0 W/m2 OVC
10:16 37.8 °F 36.2 °F 29.97 in Calm   1.2 mph 94 % 0.02 in 28.0 W/m2 OVC
10:21 37.9 °F 36.1 °F 29.97 in ENE 2.7 mph 6.9 mph 93 % 0.02 in 32.0 W/m2 OVC
10:26 37.9 °F 36.1 °F 29.97 in ENE 0.2 mph 1.2 mph 93 % 0.02 in 35.0 W/m2 OVC
10:31 38.0 °F 36.4 °F 29.96 in NE 1.8 mph 3.5 mph 94 % 0.02 in 35.0 W/m2 RA
10:36 38.1 °F 36.5 °F 29.96 in ENE 0.8 mph 3.5 mph 94 % 0.03 in 35.0 W/m2 RA
10:41 38.1 °F 36.5 °F 29.96 in ENE 2.3 mph 5.8 mph 94 % 0.04 in 37.0 W/m2 RA
10:46 38.2 °F 36.6 °F 29.96 in ENE 1.9 mph 5.0 mph 94 % 0.05 in 40.0 W/m2 RA
10:51 38.3 °F 36.5 °F 29.95 in NE 3.6 mph 5.8 mph 93 % 0.06 in 44.0 W/m2 RA
10:56 38.3 °F 36.5 °F 29.95 in NE 1.1 mph 3.5 mph 93 % 0.06 in 49.0 W/m2 RA
11:01 38.3 °F 36.5 °F 29.95 in NE 1.3 mph 3.5 mph 93 % 0.07 in 49.0 W/m2 RA
11:06 38.4 °F 36.6 °F 29.95 in Calm     93 % 0.08 in 42.0 W/m2 RA
11:11 38.4 °F 36.6 °F 29.94 in ENE 1.1 mph 2.3 mph 93 % 0.09 in 47.0 W/m2 RA
11:16 38.6 °F 37.0 °F 29.94 in ENE 1.9 mph 4.6 mph 94 % 0.10 in 56.0 W/m2 RA
11:21 38.5 °F 36.9 °F 29.94 in NE 3.4 mph 6.0 mph 94 % 0.13 in 58.0 W/m2 RA
11:26 38.5 °F 36.9 °F 29.94 in NE 4.0 mph 6.9 mph 94 % 0.14 in 69.0 W/m2 RA
11:31 38.6 °F 37.0 °F 29.93 in NNE 4.3 mph 7.0 mph 94 % 0.14 in 62.0 W/m2 RA
11:36 38.7 °F 37.1 °F 29.93 in NE 2.8 mph 4.0 mph 94 % 0.14 in 60.0 W/m2 RA
11:41 38.8 °F 37.2 °F 29.93 in NE 0.7 mph 2.0 mph 94 % 0.13 in 53.0 W/m2 RA
11:46 38.9 °F 37.3 °F 29.94 in NE 1.3 mph 4.0 mph 94 % 0.13 in 56.0 W/m2 RA
11:51 38.9 °F 37.3 °F 29.93 in NE 2.6 mph 6.9 mph 94 % 0.13 in 56.0 W/m2 RA
11:56 39.0 °F 37.4 °F 29.93 in ENE 5.0 mph 7.0 mph 94 % 0.13 in 53.0 W/m2 RA
12:01 39.0 °F 37.4 °F 29.92 in ENE 0.7 mph 4.6 mph 94 % 0.14 in 63.0 W/m2 RA
12:06 39.1 °F 37.5 °F 29.92 in ENE 2.7 mph 5.8 mph 94 % 0.14 in 62.0 W/m2 RA
12:11 39.2 °F 37.6 °F 29.92 in NE 2.4 mph 6.9 mph 94 % 0.14 in 53.0 W/m2 RA
12:16 39.2 °F 37.6 °F 29.91 in NE 3.9 mph 8.0 mph 94 % 0.15 in 53.0 W/m2 RA
12:17 39.2 °F 37.6 °F 29.92 in NE 4.1 mph 8.1 mph 94 % 0.14 in 49.0 W/m2 RA
12:22 39.2 °F 37.6 °F 29.91 in NE 4.9 mph 10.4 mph 94 % 0.15 in 46.0 W/m2 RA
12:27 39.3 °F 37.7 °F 29.91 in ENE 3.1 mph 6.9 mph 94 % 0.16 in 42.0 W/m2 RA
12:32 39.4 °F 37.8 °F 29.90 in ENE 4.1 mph 6.9 mph 94 % 0.16 in 37.0 W/m2 RA
12:37 39.4 °F 37.8 °F 29.90 in NE 1.7 mph 5.8 mph 94 % 0.16 in 44.0 W/m2 RA
12:42 39.4 °F 37.8 °F 29.90 in NE 4.5 mph 6.9 mph 94 % 0.17 in 46.0 W/m2 RA
12:47 39.5 °F 37.9 °F 29.90 in NE 2.5 mph 3.5 mph 94 % 0.17 in 65.0 W/m2 RA
12:52 39.6 °F 38.0 °F 29.90 in ENE 4.2 mph 6.9 mph 94 % 0.17 in 58.0 W/m2 RA
12:57 39.7 °F 38.1 °F 29.90 in ENE 2.7 mph 5.8 mph 94 % 0.17 in 69.0 W/m2 RA
13:02 39.8 °F 38.2 °F 29.89 in NNE 4.2 mph 6.0 mph 94 % 0.17 in 63.0 W/m2 RA
13:07 39.8 °F 38.2 °F 29.89 in ENE 2.7 mph 4.6 mph 94 % 0.17 in 58.0 W/m2 RA
13:12 40.0 °F 38.4 °F 29.89 in ENE 4.1 mph 9.2 mph 94 % 0.16 in 63.0 W/m2 RA
13:17 40.0 °F 38.4 °F 29.89 in NE 4.9 mph 9.2 mph 94 % 0.16 in 46.0 W/m2 RA
13:22 40.0 °F 38.4 °F 29.88 in East 2.8 mph 5.8 mph 94 % 0.16 in 39.0 W/m2 RA
13:26 40.0 °F 38.4 °F 29.87 in ENE 3.5 mph 10.4 mph 94 % 0.16 in 54.0 W/m2 RA
13:31 40.1 °F 38.5 °F 29.87 in NE 2.0 mph 5.8 mph 94 % 0.15 in 62.0 W/m2 RA
13:36 40.2 °F 38.6 °F 29.87 in NE 2.7 mph 6.9 mph 94 % 0.16 in 56.0 W/m2 RA
13:41 40.2 °F 38.6 °F 29.86 in NE 4.9 mph 6.0 mph 94 % 0.16 in 72.0 W/m2 RA
13:47 40.2 °F 38.6 °F 29.85 in ENE 5.9 mph 13.8 mph 94 % 0.17 in 69.0 W/m2 RA
13:52 40.3 °F 38.7 °F 29.85 in ESE 7.9 mph 10.4 mph 94 % 0.17 in 69.0 W/m2 RA
13:57 40.3 °F 38.7 °F 29.85 in ENE 3.5 mph 11.5 mph 94 % 0.17 in 83.0 W/m2 RA
14:02 40.4 °F 38.8 °F 29.84 in East 3.0 mph 4.6 mph 94 % 0.18 in 95.0 W/m2 RA
14:07 40.3 °F 38.7 °F 29.84 in East 4.7 mph 10.4 mph 94 % 0.17 in 83.0 W/m2 RA
14:12 40.4 °F 38.8 °F 29.84 in East 2.3 mph 5.8 mph 94 % 0.17 in 58.0 W/m2 RA
14:17 40.4 °F 38.8 °F 29.84 in NNE 3.0 mph 8.1 mph 94 % 0.17 in 76.0 W/m2 RA
14:22 40.3 °F 38.7 °F 29.83 in ENE 3.2 mph 10.4 mph 94 % 0.16 in 81.0 W/m2 RA
14:27 40.4 °F 38.8 °F 29.83 in ENE 3.5 mph 10.4 mph 94 % 0.16 in 79.0 W/m2 RA
14:32 40.2 °F 38.6 °F 29.82 in NE 3.7 mph 7.0 mph 94 % 0.15 in 79.0 W/m2 RA
14:37 40.2 °F 38.3 °F 29.82 in ENE 4.5 mph 8.1 mph 93 % 0.15 in 72.0 W/m2 RA
14:42 40.2 °F 38.6 °F 29.82 in ENE 4.3 mph 6.9 mph 94 % 0.14 in 69.0 W/m2 RA
14:47 40.2 °F 38.3 °F 29.81 in NE 5.7 mph 12.7 mph 93 % 0.13 in 79.0 W/m2 RA
14:52 40.2 °F 38.3 °F 29.80 in ENE 6.9 mph 15.0 mph 93 % 0.13 in 72.0 W/m2 RA
14:54 40.2 °F 38.3 °F 29.80 in ENE 4.8 mph 16.1 mph 93 % 0.12 in 76.0 W/m2 RA
14:59 40.2 °F 38.3 °F 29.80 in ENE 7.9 mph 11.5 mph 93 % 0.12 in 69.0 W/m2 RA
15:04 40.1 °F 38.2 °F 29.79 in NNE 6.1 mph 11.5 mph 93 % 0.13 in 54.0 W/m2 RA
15:09 40.1 °F 38.2 °F 29.79 in East 9.1 mph 11.5 mph 93 % 0.13 in 47.0 W/m2 RA
15:14 40.2 °F 38.3 °F 29.79 in NE 4.6 mph 11.5 mph 93 % 0.12 in 39.0 W/m2 RA
15:19 40.1 °F 38.2 °F 29.79 in ENE 6.4 mph 11.5 mph 93 % 0.12 in 53.0 W/m2 RA
15:24 40.2 °F 38.3 °F 29.79 in East 3.2 mph 9.2 mph 93 % 0.12 in 49.0 W/m2 RA
15:29 40.2 °F 38.3 °F 29.78 in NE 1.2 mph 3.5 mph 93 % 0.12 in 42.0 W/m2 RA
15:34 40.2 °F 38.3 °F 29.78 in NE 6.2 mph 12.7 mph 93 % 0.12 in 40.0 W/m2 RA
15:39 40.2 °F 38.3 °F 29.77 in NE 5.7 mph 11.5 mph 93 % 0.12 in 39.0 W/m2 RA
15:44 40.2 °F 38.3 °F 29.77 in East 6.3 mph 11.5 mph 93 % 0.10 in 53.0 W/m2 RA
15:49 40.3 °F 38.4 °F 29.76 in NE 6.8 mph 11.5 mph 93 % 0.10 in 51.0 W/m2 RA
15:54 40.3 °F 38.4 °F 29.76 in East 5.2 mph 11.5 mph 93 % 0.12 in 54.0 W/m2 RA
15:59 40.4 °F 38.5 °F 29.75 in ENE 6.0 mph 10.4 mph 93 % 0.12 in 51.0 W/m2 RA
16:04 40.3 °F 38.4 °F 29.75 in East 7.1 mph 11.5 mph 93 % 0.09 in 49.0 W/m2 RA
16:09 40.4 °F 38.5 °F 29.75 in ENE 4.0 mph 6.9 mph 93 % 0.08 in 35.0 W/m2 OVC
16:14 40.4 °F 38.5 °F 29.75 in ENE 3.0 mph 5.8 mph 93 % 0.08 in 39.0 W/m2 RA
16:19 40.4 °F 38.5 °F 29.75 in ENE 4.9 mph 10.4 mph 93 % 0.07 in 42.0 W/m2 RA
16:24 40.4 °F 38.5 °F 29.75 in NE 3.5 mph 8.1 mph 93 % 0.07 in 35.0 W/m2 RA
16:29 40.4 °F 38.5 °F 29.75 in East 5.9 mph 11.5 mph 93 % 0.08 in 33.0 W/m2 RA
16:34 40.4 °F 38.5 °F 29.75 in ENE 3.2 mph 4.6 mph 93 % 0.08 in 30.0 W/m2 RA
16:39 40.4 °F 38.5 °F 29.74 in NE 5.1 mph 10.4 mph 93 % 0.08 in 33.0 W/m2 RA
16:44 40.4 °F 38.5 °F 29.74 in NE 3.6 mph 5.8 mph 93 % 0.09 in 30.0 W/m2 RA
16:49 40.4 °F 38.5 °F 29.74 in NE 3.0 mph 4.6 mph 93 % 0.10 in 26.0 W/m2 RA
16:54 40.4 °F 38.5 °F 29.73 in ENE 7.2 mph 12.7 mph 93 % 0.10 in 23.0 W/m2 RA
16:59 40.4 °F 38.5 °F 29.73 in NE 4.2 mph 5.8 mph 93 % 0.13 in 23.0 W/m2 RA
17:04 40.4 °F 38.5 °F 29.73 in ENE 5.6 mph 10.4 mph 93 % 0.15 in 23.0 W/m2 RA
17:09 40.4 °F 38.5 °F 29.73 in ENE 4.0 mph 6.9 mph 93 % 0.19 in 19.0 W/m2 RA
17:14 40.4 °F 38.5 °F 29.73 in NE 3.2 mph 6.9 mph 93 % 0.20 in 19.0 W/m2 RA
17:19 40.5 °F 38.6 °F 29.72 in ENE 5.3 mph 9.2 mph 93 % 0.22 in 18.0 W/m2 RA
17:24 40.5 °F 38.6 °F 29.72 in ENE 8.3 mph 12.7 mph 93 % 0.23 in 21.0 W/m2 RA
17:29 40.4 °F 38.5 °F 29.72 in NE 6.1 mph 10.4 mph 93 % 0.24 in 19.0 W/m2 RA
17:34 40.5 °F 38.6 °F 29.72 in East 2.7 mph 3.5 mph 93 % 0.24 in 21.0 W/m2 RA
17:39 40.5 °F 38.6 °F 29.72 in ENE 6.2 mph 10.4 mph 93 % 0.24 in 19.0 W/m2 RA
17:44 40.5 °F 38.6 °F 29.71 in NE 3.4 mph 5.8 mph 93 % 0.24 in 19.0 W/m2 RA
17:49 40.5 °F 38.6 °F 29.72 in ENE 2.5 mph 3.5 mph 93 % 0.22 in 12.0 W/m2 RA
17:54 40.6 °F 38.7 °F 29.73 in NE 1.6 mph 4.6 mph 93 % 0.21 in 9.0 W/m2 OVC
17:59 40.6 °F 38.7 °F 29.72 in ENE 1.2 mph 3.5 mph 93 % 0.18 in 12.0 W/m2 OVC
18:04 40.6 °F 38.7 °F 29.72 in NE 0.7 mph 5.0 mph 93 % 0.17 in 12.0 W/m2 RA
18:09 40.5 °F 38.6 °F 29.72 in NE 2.1 mph 10.4 mph 93 % 0.14 in 14.0 W/m2 RA
18:14 40.6 °F 38.7 °F 29.72 in NE 3.1 mph 5.8 mph 93 % 0.13 in 14.0 W/m2 RA
18:19 40.6 °F 38.7 °F 29.72 in NNE 4.6 mph 11.5 mph 93 % 0.10 in 12.0 W/m2 RA
18:24 40.5 °F 38.6 °F 29.71 in East 2.4 mph 3.5 mph 93 % 0.09 in 12.0 W/m2 RA
18:29 40.5 °F 38.6 °F 29.71 in ENE 2.6 mph 10.4 mph 93 % 0.08 in 16.0 W/m2 RA
18:30 40.5 °F 38.6 °F 29.71 in ENE 2.8 mph 10.4 mph 93 % 0.08 in 16.0 W/m2 RA
18:35 40.5 °F 38.9 °F 29.71 in ENE 2.6 mph 5.8 mph 94 % 0.08 in 14.0 W/m2 RA
18:40 40.5 °F 38.9 °F 29.71 in NE 3.0 mph 9.2 mph 94 % 0.08 in 12.0 W/m2 RA
18:45 40.5 °F 38.9 °F 29.71 in NNE 3.1 mph 5.8 mph 94 % 0.08 in 14.0 W/m2 RA
18:50 40.5 °F 38.9 °F 29.71 in NNE 1.7 mph 3.5 mph 94 % 0.08 in 11.0 W/m2 RA
18:55 40.5 °F 38.9 °F 29.71 in NE 6.3 mph 10.4 mph 94 % 0.08 in 7.0 W/m2
19:00 40.4 °F 38.8 °F 29.71 in NE 3.5 mph 6.9 mph 94 % 0.08 in 9.0 W/m2 RA
19:05 40.4 °F 38.8 °F 29.72 in NE 1.1 mph 3.5 mph 94 % 0.09 in 9.0 W/m2 RA
19:10 40.3 °F 38.7 °F 29.72 in NNE 3.0 mph 5.8 mph 94 % 0.09 in 5.0 W/m2 RA
19:15 40.3 °F 38.7 °F 29.72 in NNE 4.4 mph 8.1 mph 94 % 0.10 in 0.0 W/m2 RA
19:20 40.3 °F 38.7 °F 29.72 in NNE 9.5 mph 12.7 mph 94 % 0.10 in 0.0 W/m2 RA
19:25 40.2 °F 38.6 °F 29.72 in NNE 8.5 mph 11.5 mph 94 % 0.12 in 0.0 W/m2 RA
19:30 40.2 °F 38.6 °F 29.72 in NNE 5.9 mph 8.1 mph 94 % 0.12 in 0.0 W/m2 RA
19:35 40.2 °F 38.6 °F 29.72 in NE 5.1 mph 9.2 mph 94 % 0.12 in 0.0 W/m2 RA
19:40 40.1 °F 38.5 °F 29.72 in NNE 9.7 mph 12.7 mph 94 % 0.10 in 0.0 W/m2 RA
19:45 40.1 °F 38.5 °F 29.73 in NNE 5.7 mph 10.4 mph 94 % 0.10 in 0.0 W/m2 RA
19:50 40.0 °F 38.4 °F 29.72 in NE 5.6 mph 8.1 mph 94 % 0.10 in 0.0 W/m2 RA
19:55 40.0 °F 38.4 °F 29.72 in NE 6.0 mph 10.4 mph 94 % 0.12 in 0.0 W/m2 RA
20:00 39.9 °F 38.3 °F 29.73 in NE 8.5 mph 13.8 mph 94 % 0.10 in 0.0 W/m2 RA
20:05 39.9 °F 38.3 °F 29.73 in NE 4.6 mph 6.9 mph 94 % 0.09 in 0.0 W/m2
20:10 39.9 °F 38.3 °F 29.72 in NE 5.0 mph 8.1 mph 94 % 0.09 in 0.0 W/m2 RA
20:15 39.8 °F 38.2 °F 29.72 in NE 5.6 mph 9.2 mph 94 % 0.07 in 0.0 W/m2 RA
20:20 39.8 °F 38.2 °F 29.73 in NE 7.6 mph 9.2 mph 94 % 0.06 in 0.0 W/m2
20:25 39.7 °F 38.1 °F 29.73 in NNE 6.4 mph 8.0 mph 94 % 0.05 in 0.0 W/m2
20:30 39.7 °F 38.1 °F 29.73 in NE 6.9 mph 9.2 mph 94 % 0.05 in 0.0 W/m2 RA
20:31 39.7 °F 38.1 °F 29.73 in NNE 6.2 mph 9.2 mph 94 % 0.05 in 0.0 W/m2 RA
20:36 39.6 °F 38.0 °F 29.73 in NNE 7.5 mph 10.4 mph 94 % 0.05 in 0.0 W/m2 RA
20:41 39.6 °F 38.0 °F 29.73 in NNE 8.0 mph 9.2 mph 94 % 0.05 in 0.0 W/m2 RA
20:46 39.6 °F 38.0 °F 29.73 in NNE 7.1 mph 10.4 mph 94 % 0.04 in 0.0 W/m2
20:51 39.5 °F 37.9 °F 29.73 in NE 7.9 mph 11.5 mph 94 % 0.04 in 0.0 W/m2
20:56 39.4 °F 37.8 °F 29.73 in NE 5.2 mph 7.0 mph 94 % 0.03 in 0.0 W/m2
21:01 39.4 °F 37.8 °F 29.73 in NNE 7.0 mph 10.4 mph 94 % 0.03 in 0.0 W/m2
21:06 39.4 °F 37.8 °F 29.73 in NNE 8.1 mph 11.5 mph 94 % 0.02 in 0.0 W/m2
21:11 39.3 °F 37.7 °F 29.73 in NNE 4.1 mph 6.0 mph 94 % 0.02 in 0.0 W/m2
21:16 39.2 °F 37.6 °F 29.73 in NE 7.1 mph 10.4 mph 94 % 0.02 in 0.0 W/m2
21:21 39.1 °F 37.5 °F 29.73 in NNE 6.0 mph 9.0 mph 94 % 0.02 in 0.0 W/m2
21:26 39.0 °F 37.4 °F 29.73 in NNE 7.1 mph 10.4 mph 94 % 0.02 in 0.0 W/m2
21:31 39.0 °F 37.4 °F 29.72 in NNE 7.6 mph 13.0 mph 94 % 0.01 in 0.0 W/m2
21:36 38.9 °F 37.3 °F 29.72 in ENE 7.3 mph 11.5 mph 94 % 0.00 in 0.0 W/m2 CLR
21:41 38.9 °F 37.3 °F 29.72 in NNE 3.0 mph 5.0 mph 94 % 0.00 in 0.0 W/m2 CLR
21:46 38.9 °F 37.3 °F 29.72 in NE 8.1 mph 13.0 mph 94 % 0.00 in 0.0 W/m2 CLR
21:51 38.8 °F 37.2 °F 29.72 in NE 8.8 mph 11.5 mph 94 % 0.00 in 0.0 W/m2 CLR
21:56 38.7 °F 37.1 °F 29.71 in NE 5.7 mph 11.5 mph 94 % 0.01 in 0.0 W/m2 RA
22:01 38.7 °F 37.1 °F 29.71 in NE 5.2 mph 10.4 mph 94 % 0.01 in 0.0 W/m2 RA
22:06 38.6 °F 37.0 °F 29.70 in NE 6.2 mph 11.5 mph 94 % 0.01 in 0.0 W/m2
22:11 38.6 °F 37.0 °F 29.70 in NE 4.8 mph 10.4 mph 94 % 0.01 in 0.0 W/m2
22:16 38.6 °F 37.0 °F 29.70 in NNE 8.4 mph 14.0 mph 94 % 0.01 in 0.0 W/m2
22:21 38.6 °F 37.0 °F 29.71 in NE 4.5 mph 5.8 mph 94 % 0.01 in 0.0 W/m2
22:26 38.5 °F 36.9 °F 29.71 in NNE 6.9 mph 11.5 mph 94 % 0.01 in 0.0 W/m2
22:31 38.5 °F 36.9 °F 29.69 in NE 5.6 mph 9.2 mph 94 % 0.01 in 0.0 W/m2
22:36 38.5 °F 36.9 °F 29.70 in ENE 6.9 mph 11.5 mph 94 % 0.01 in 0.0 W/m2
22:41 38.4 °F 36.8 °F 29.70 in NE 2.9 mph 5.8 mph 94 % 0.01 in 0.0 W/m2
22:46 38.4 °F 36.8 °F 29.71 in NE 2.4 mph 9.2 mph 94 % 0.01 in 0.0 W/m2
22:51 38.4 °F 36.8 °F 29.71 in NE 5.0 mph 10.4 mph 94 % 0.01 in 0.0 W/m2
22:56 38.4 °F 36.8 °F 29.71 in NNE 7.2 mph 10.4 mph 94 % 0.00 in 0.0 W/m2 CLR
22:57 38.4 °F 36.8 °F 29.71 in NNE 4.2 mph 10.4 mph 94 % 0.00 in 0.0 W/m2 CLR
23:02 38.3 °F 36.7 °F 29.70 in NE 5.5 mph 9.2 mph 94 % 0.00 in 0.0 W/m2 CLR
23:07 38.3 °F 36.7 °F 29.70 in NNE 5.4 mph 10.4 mph 94 % 0.00 in 0.0 W/m2 CLR
23:12 38.3 °F 36.7 °F 29.71 in NNE 7.7 mph 10.4 mph 94 % 0.00 in 0.0 W/m2 CLR
23:17 38.3 °F 36.7 °F 29.71 in NNE 4.3 mph 8.1 mph 94 % 0.00 in 0.0 W/m2 CLR
23:22 38.3 °F 36.7 °F 29.71 in NNE 4.8 mph 6.9 mph 94 % 0.00 in 0.0 W/m2 CLR
23:27 38.3 °F 36.7 °F 29.71 in NE 4.6 mph 5.8 mph 94 % 0.00 in 0.0 W/m2 CLR
23:32 38.2 °F 36.6 °F 29.71 in NNE 4.8 mph 8.1 mph 94 % 0.00 in 0.0 W/m2 CLR
23:37 38.2 °F 36.6 °F 29.71 in NNE 3.5 mph 4.0 mph 94 % 0.00 in 0.0 W/m2 CLR
23:42 38.3 °F 36.7 °F 29.71 in NE 6.1 mph 9.2 mph 94 % 0.00 in 0.0 W/m2 CLR
23:47 38.2 °F 36.6 °F 29.70 in North 5.6 mph 9.2 mph 94 % 0.00 in 0.0 W/m2 CLR
23:52 38.2 °F 36.6 °F 29.70 in NNE 5.9 mph 9.2 mph 94 % 0.00 in 0.0 W/m2 CLR
23:57 38.2 °F 36.6 °F 29.70 in NE 8.3 mph 13.8 mph 94 % 0.00 in 0.0 W/m2 CLR
Air Products Campus Weather
Compliments of Weather Underground - 3.5 mb